createdAt,value
2023-03-17T00:00:43.608Z,4.02
2023-03-17T00:06:00.191Z,3.98
2023-03-17T00:11:06.444Z,3.94
2023-03-17T00:16:19.261Z,3.90
2023-03-17T00:21:28.700Z,3.89
2023-03-17T00:26:34.210Z,3.86
2023-03-17T00:31:40.297Z,3.81
2023-03-17T00:36:48.437Z,3.78
2023-03-17T00:41:54.110Z,3.75
2023-03-17T00:46:59.575Z,3.72
2023-03-17T00:52:06.055Z,3.69
2023-03-17T00:57:12.775Z,3.68
2023-03-17T01:02:18.544Z,3.66
2023-03-17T01:07:24.378Z,3.62
2023-03-17T01:12:29.747Z,3.60
2023-03-17T01:17:35.020Z,3.58
2023-03-17T01:22:40.419Z,3.56
2023-03-17T01:27:46.687Z,3.56
2023-03-17T01:32:52.171Z,3.56
2023-03-17T01:37:58.039Z,3.54
2023-03-17T01:43:19.714Z,3.54
2023-03-17T01:48:26.085Z,3.54
2023-03-17T01:53:32.545Z,3.52
2023-03-17T01:58:37.998Z,3.52
2023-03-17T02:03:45.107Z,3.50
2023-03-17T02:08:52.113Z,3.48
2023-03-17T02:13:57.676Z,3.45
2023-03-17T02:19:03.641Z,3.43
2023-03-17T02:24:17.710Z,3.44
2023-03-17T02:29:23.705Z,3.44
2023-03-17T02:34:29.344Z,3.43
2023-03-17T02:39:35.151Z,3.41
2023-03-17T02:44:40.924Z,3.40
2023-03-17T02:49:47.037Z,3.39
2023-03-17T02:54:52.841Z,3.39
2023-03-17T02:59:58.206Z,3.40
2023-03-17T03:05:04.737Z,3.39
2023-03-17T03:10:12.108Z,3.39
2023-03-17T03:15:17.884Z,3.39
2023-03-17T03:20:23.245Z,3.40
2023-03-17T03:25:29.081Z,3.39
2023-03-17T03:30:35.098Z,3.38
2023-03-17T03:35:40.606Z,3.37
2023-03-17T03:40:46.793Z,3.36
2023-03-17T03:45:54.608Z,3.35
2023-03-17T03:51:01.456Z,3.34
2023-03-17T03:56:08.055Z,3.33
2023-03-17T04:01:13.342Z,3.32
2023-03-17T04:06:19.040Z,3.31
2023-03-17T04:11:24.359Z,3.32
2023-03-17T04:16:29.732Z,3.30
2023-03-17T04:21:35.146Z,3.28
2023-03-17T04:26:41.464Z,3.25
2023-03-17T04:31:46.819Z,3.23
2023-03-17T04:36:52.210Z,3.20
2023-03-17T04:41:57.703Z,3.19
2023-03-17T04:47:03.520Z,3.17
2023-03-17T04:52:09.057Z,3.14
2023-03-17T04:57:14.518Z,3.15
2023-03-17T05:02:20.339Z,3.14
2023-03-17T05:07:26.175Z,3.13
2023-03-17T05:12:31.714Z,3.14
2023-03-17T05:17:37.098Z,3.15
2023-03-17T05:22:42.699Z,3.15
2023-03-17T05:27:48.001Z,3.14
2023-03-17T05:32:54.035Z,3.15
2023-03-17T05:37:59.460Z,3.18
2023-03-17T05:43:05.939Z,3.21
2023-03-17T05:48:12.393Z,3.24
2023-03-17T05:53:17.837Z,3.27
2023-03-17T05:58:23.148Z,3.31
2023-03-17T06:03:28.499Z,3.33
2023-03-17T06:08:33.950Z,3.37
2023-03-17T06:13:39.298Z,3.40
2023-03-17T06:18:45.882Z,3.45
2023-03-17T06:23:51.288Z,3.48
2023-03-17T06:28:57.528Z,3.52
2023-03-17T06:34:03.279Z,3.58
2023-03-17T06:39:09.560Z,3.62
2023-03-17T06:44:15.251Z,3.67
2023-03-17T06:49:20.826Z,3.73
2023-03-17T06:54:26.384Z,3.78
2023-03-17T06:59:32.312Z,3.83
2023-03-17T07:04:38.367Z,3.91
2023-03-17T07:09:45.282Z,4.03
2023-03-17T07:14:50.900Z,4.12
2023-03-17T07:19:56.641Z,4.22
2023-03-17T07:25:02.104Z,4.29
2023-03-17T07:30:10.896Z,4.44
2023-03-17T07:35:16.686Z,4.75
2023-03-17T07:40:22.313Z,5.11
2023-03-17T07:45:27.971Z,5.33
2023-03-17T07:50:34.091Z,5.43
2023-03-17T07:55:39.466Z,5.55
2023-03-17T08:00:44.743Z,5.66
2023-03-17T08:05:57.534Z,5.96
2023-03-17T08:11:05.190Z,6.30
2023-03-17T08:16:11.108Z,6.69
2023-03-17T08:21:16.894Z,6.97
2023-03-17T08:26:22.512Z,7.12
2023-03-17T08:31:28.667Z,7.30
2023-03-17T08:36:34.417Z,7.30
2023-03-17T08:41:39.710Z,7.28
2023-03-17T08:46:45.611Z,7.32
2023-03-17T08:51:51.093Z,7.33
2023-03-17T08:56:57.655Z,7.35
2023-03-17T09:02:03.110Z,7.42
2023-03-17T09:07:10.335Z,7.51
2023-03-17T09:12:15.700Z,7.61
2023-03-17T09:17:21.774Z,7.71
2023-03-17T09:22:27.523Z,7.86
2023-03-17T09:27:32.820Z,7.98
2023-03-17T09:32:39.046Z,8.22
2023-03-17T09:37:44.411Z,8.39
2023-03-17T09:42:59.702Z,8.56
2023-03-17T09:48:23.452Z,8.69
2023-03-17T09:53:35.850Z,8.88
2023-03-17T09:58:44.305Z,9.14
2023-03-17T10:03:50.982Z,9.44
2023-03-17T10:09:02.406Z,9.69
2023-03-17T10:14:23.690Z,9.97
2023-03-17T10:19:34.820Z,10.23
2023-03-17T10:24:45.957Z,10.41
2023-03-17T10:29:51.833Z,10.63
2023-03-17T10:34:57.805Z,10.80
2023-03-17T10:40:10.419Z,11.03
2023-03-17T10:45:25.087Z,11.14
2023-03-17T10:50:32.850Z,11.20
2023-03-17T10:55:44.793Z,11.42
2023-03-17T11:00:57.220Z,11.59
2023-03-17T11:06:14.390Z,11.70
2023-03-17T11:11:27.864Z,11.91
2023-03-17T11:16:37.489Z,12.02
2023-03-17T11:21:54.683Z,12.13
2023-03-17T11:27:08.518Z,12.11
2023-03-17T11:32:32.122Z,12.16
2023-03-17T11:37:57.463Z,12.33
2023-03-17T11:43:18.089Z,12.64
2023-03-17T11:48:40.027Z,12.99
2023-03-17T11:54:01.043Z,13.34
2023-03-17T11:59:14.652Z,13.37
2023-03-17T12:04:25.779Z,13.41
2023-03-17T12:09:37.247Z,13.46
2023-03-17T12:14:48.844Z,13.48
2023-03-17T12:19:58.942Z,13.38
2023-03-17T12:25:16.493Z,13.34
2023-03-17T12:30:31.258Z,13.35
2023-03-17T12:35:41.125Z,13.33
2023-03-17T12:41:07.915Z,13.28
2023-03-17T12:46:35.299Z,13.24
2023-03-17T12:51:56.366Z,13.19
2023-03-17T12:57:21.392Z,13.17
2023-03-17T13:02:38.538Z,13.18
2023-03-17T13:07:51.792Z,13.21
2023-03-17T13:13:10.492Z,13.23
2023-03-17T13:18:45.007Z,13.31
2023-03-17T13:23:57.910Z,13.35
2023-03-17T13:29:22.600Z,13.36
2023-03-17T13:34:29.703Z,13.44
2023-03-17T13:40:04.682Z,13.60
2023-03-17T13:45:23.330Z,13.68
2023-03-17T13:50:33.575Z,13.74
2023-03-17T13:55:42.443Z,13.72
2023-03-17T14:00:50.719Z,13.65
2023-03-17T14:05:57.473Z,13.64
2023-03-17T14:11:07.059Z,13.66
2023-03-17T14:16:21.294Z,13.71
2023-03-17T14:21:32.843Z,13.71
2023-03-17T14:26:38.335Z,13.73
2023-03-17T14:31:49.796Z,13.79
2023-03-17T14:36:58.455Z,13.88
2023-03-17T14:42:05.674Z,13.84
2023-03-17T14:47:19.812Z,13.73
2023-03-17T14:52:28.671Z,13.62
2023-03-17T14:57:37.240Z,13.55
2023-03-17T15:02:44.300Z,13.52
2023-03-17T15:07:49.836Z,13.45
2023-03-17T15:13:04.368Z,13.40
2023-03-17T15:18:13.681Z,13.36
2023-03-17T15:23:22.304Z,13.31
2023-03-17T15:28:31.571Z,13.24
2023-03-17T15:33:39.314Z,13.17
2023-03-17T15:38:44.694Z,13.10
2023-03-17T15:43:49.961Z,13.02
2023-03-17T15:48:55.665Z,12.98
2023-03-17T15:54:01.044Z,12.94
2023-03-17T15:59:06.397Z,12.88
2023-03-17T16:04:11.797Z,12.82
2023-03-17T16:09:18.213Z,12.76
2023-03-17T16:14:25.213Z,12.69
2023-03-17T16:19:30.675Z,12.63
2023-03-17T16:24:35.989Z,12.57
2023-03-17T16:29:41.394Z,12.51
2023-03-17T16:34:46.913Z,12.44
2023-03-17T16:39:52.349Z,12.36
2023-03-17T16:44:57.809Z,12.28
2023-03-17T16:50:03.367Z,12.20
2023-03-17T16:55:09.859Z,12.13
2023-03-17T17:00:20.149Z,12.05
2023-03-17T17:05:28.205Z,11.98
2023-03-17T17:10:34.793Z,11.91
2023-03-17T17:15:41.715Z,11.86
2023-03-17T17:20:47.743Z,11.83
2023-03-17T17:25:54.001Z,11.80
2023-03-17T17:30:59.799Z,11.75
2023-03-17T17:36:11.413Z,11.70
2023-03-17T17:41:17.118Z,11.65
2023-03-17T17:46:23.515Z,11.59
2023-03-17T17:51:29.283Z,11.55
2023-03-17T17:56:36.744Z,11.52
2023-03-17T18:01:42.662Z,11.49
2023-03-17T18:06:47.997Z,11.44
2023-03-17T18:11:53.473Z,11.38
2023-03-17T18:16:58.917Z,11.31
2023-03-17T18:22:04.684Z,11.27
2023-03-17T18:27:10.328Z,11.23
2023-03-17T18:32:15.925Z,11.20
2023-03-17T18:37:21.222Z,11.15
2023-03-17T18:42:27.305Z,11.11
2023-03-17T18:47:32.614Z,11.06
2023-03-17T18:52:41.114Z,11.00
2023-03-17T18:57:46.675Z,10.97
2023-03-17T19:02:52.150Z,10.93
2023-03-17T19:07:57.715Z,10.89
2023-03-17T19:13:04.570Z,10.86
2023-03-17T19:18:10.074Z,10.80
2023-03-17T19:23:15.511Z,10.75
2023-03-17T19:28:20.857Z,10.70
2023-03-17T19:33:26.523Z,10.65
2023-03-17T19:38:32.170Z,10.62
2023-03-17T19:43:41.225Z,10.59
2023-03-17T19:48:48.131Z,10.56
2023-03-17T19:53:53.864Z,10.51
2023-03-17T19:58:59.459Z,10.47
2023-03-17T20:04:07.073Z,10.42
2023-03-17T20:09:12.757Z,10.39
2023-03-17T20:14:18.160Z,10.35
2023-03-17T20:19:23.949Z,10.30
2023-03-17T20:24:30.234Z,10.25
2023-03-17T20:29:35.584Z,10.20
2023-03-17T20:34:43.379Z,10.16
2023-03-17T20:39:48.815Z,10.11
2023-03-17T20:44:54.100Z,10.05
2023-03-17T20:50:00.585Z,10.02
2023-03-17T20:55:09.283Z,10.00
2023-03-17T21:00:18.284Z,9.97
2023-03-17T21:05:26.063Z,9.95
2023-03-17T21:10:31.813Z,9.90
2023-03-17T21:15:37.605Z,9.84
2023-03-17T21:20:43.137Z,9.77
2023-03-17T21:25:52.777Z,9.68
2023-03-17T21:30:58.418Z,9.61
2023-03-17T21:36:04.483Z,9.55
2023-03-17T21:41:29.274Z,9.48
2023-03-17T21:46:34.565Z,9.41
2023-03-17T21:51:40.040Z,9.35
2023-03-17T21:56:46.284Z,9.26
2023-03-17T22:01:53.158Z,9.20
2023-03-17T22:06:59.050Z,9.17
2023-03-17T22:12:05.347Z,9.11
2023-03-17T22:17:10.768Z,9.07
2023-03-17T22:22:16.141Z,9.02
2023-03-17T22:27:21.604Z,8.98
2023-03-17T22:32:26.890Z,8.96
2023-03-17T22:37:32.323Z,8.97
2023-03-17T22:42:38.010Z,8.95
2023-03-17T22:47:43.682Z,8.93
2023-03-17T22:52:49.391Z,8.90
2023-03-17T22:57:54.645Z,8.88
2023-03-17T23:02:59.908Z,8.85
2023-03-17T23:08:08.454Z,8.83
2023-03-17T23:13:13.924Z,8.80
2023-03-17T23:18:19.338Z,8.78
2023-03-17T23:23:24.638Z,8.75
2023-03-17T23:28:29.921Z,8.74
2023-03-17T23:33:35.194Z,8.72
2023-03-17T23:38:41.529Z,8.68
2023-03-17T23:43:47.028Z,8.66
2023-03-17T23:48:53.048Z,8.64
2023-03-17T23:54:18.656Z,8.62
2023-03-17T23:59:34.517Z,8.59
